CST,Max TemperatureF,Mean TemperatureF,Min TemperatureF,Max Dew PointF,MeanDew PointF,Min DewpointF,Max Humidity, Mean Humidity, Min Humidity, Max Sea Level PressureIn, Mean Sea Level PressureIn, Min Sea Level PressureIn, Max VisibilityMiles, Mean VisibilityMiles, Min VisibilityMiles, Max Wind SpeedMPH, Mean Wind SpeedMPH, Max Gust SpeedMPH,PrecipitationIn, CloudCover, Events, WindDirDegrees
2012-11-1,80,61,42,45,39,36,76,60,26,30.02,29.97,29.90,10,10,10,14,3,,0.00,0,,134
2012-11-2,89,66,44,50,43,37,93,61,18,29.96,29.87,29.75,10,10,10,29,6,37,0.00,1,,222
2012-11-3,66,54,42,43,36,32,76,60,30,30.20,30.11,29.96,10,10,10,17,13,24,0.00,1,,357
2012-11-4,69,51,33,37,32,30,93,64,26,30.23,30.14,30.04,10,10,10,14,5,,0.00,1,,40
2012-11-5,60,48,35,39,34,32,87,57,39,30.18,30.10,30.04,10,10,10,23,7,34,0.00,1,,335
2012-11-6,71,52,33,39,33,30,93,64,26,30.14,30.11,30.06,10,10,10,22,5,25,0.00,1,,327
2012-11-7,69,53,37,37,30,25,75,52,20,30.20,30.11,30.02,10,10,10,13,5,,0.00,0,,121
2012-11-8,80,60,41,54,43,32,70,54,34,30.01,29.89,29.80,10,10,10,30,12,39,0.00,1,,167
2012-11-9,80,71,62,59,53,50,68,56,45,29.84,29.80,29.75,10,10,10,30,18,36,0.00,1,,184
2012-11-10,77,70,64,59,57,54,78,62,50,29.81,29.71,29.65,10,10,10,37,23,45,0.00,3,Thunderstorm,177
2012-11-11,69,50,32,59,38,25,94,77,61,30.29,29.99,29.66,10,9,2,18,14,26,0.47,4,Rain-Thunderstorm,331
2012-11-12,53,38,24,30,27,21,93,77,35,30.47,30.40,30.30,10,10,1,16,4,,0.00,0,,212
2012-11-13,57,42,26,36,29,23,100,75,27,30.45,30.38,30.28,10,10,10,17,6,23,0.00,1,,170
2012-11-14,60,44,28,34,30,27,93,75,29,30.35,30.27,30.21,10,10,10,17,4,20,0.00,1,,179
2012-11-15,66,48,30,37,32,28,93,76,32,30.35,30.25,30.19,10,10,10,16,7,,0.00,1,,154
2012-11-16,64,48,33,39,33,32,93,73,30,30.43,30.36,30.31,10,10,10,12,2,,0.00,0,,146
2012-11-17,64,48,32,36,32,30,93,72,30,30.36,30.28,30.21,10,10,10,21,5,28,0.00,0,,154
2012-11-18,68,54,39,45,37,32,76,64,33,30.22,30.14,30.06,10,10,10,26,11,34,0.02,3,Rain,164
2012-11-19,71,58,44,54,46,41,100,82,53,30.14,30.11,30.07,10,9,3,14,6,,0.00,1,Rain,170
2012-11-20,75,57,39,50,41,37,100,77,29,30.26,30.19,30.13,10,8,0,9,4,,0.00,0,Fog,8
2012-11-21,75,57,39,52,42,36,93,67,36,30.22,30.11,29.96,10,10,10,23,6,30,0.00,1,,175
2012-11-22,77,64,51,52,46,36,72,57,40,30.28,30.02,29.87,10,10,10,26,17,36,0.00,1,,197
2012-11-23,51,40,28,36,27,21,76,60,30,30.58,30.44,30.29,10,10,10,20,10,28,0.00,0,,355
2012-11-24,60,42,23,25,23,19,86,55,23,30.43,30.16,29.94,10,10,10,22,7,31,0.00,1,,185
2012-11-25,64,48,33,34,28,23,70,58,30,29.93,29.88,29.83,10,10,10,14,9,,0.00,0,,138
2012-11-26,51,40,30,32,29,21,87,72,34,30.43,30.13,29.86,10,10,10,32,13,38,0.00,0,,4
2012-11-27,50,36,23,30,26,23,100,81,40,30.47,30.37,30.27,10,8,4,17,8,,0.00,0,,332
2012-11-28,62,43,24,36,31,23,93,76,37,30.38,30.24,30.12,10,10,10,17,5,23,0.00,0,,164
2012-11-29,69,55,41,45,39,36,81,68,40,30.11,30.04,29.94,10,10,10,22,12,30,0.00,0,,177
2012-11-30,68,52,35,52,43,32,100,82,52,30.06,29.99,29.91,10,7,2,15,6,,0.00,1,,146